createdAt,value
2022-12-12T00:00:53.084Z,8.99
2022-12-12T00:03:20.080Z,8.76
2022-12-12T00:05:46.990Z,8.74
2022-12-12T00:08:13.858Z,8.66
2022-12-12T00:10:40.505Z,8.66
2022-12-12T00:13:07.159Z,8.61
2022-12-12T00:15:33.811Z,8.57
2022-12-12T00:18:00.439Z,8.63
2022-12-12T00:20:27.259Z,8.70
2022-12-12T00:22:53.922Z,8.56
2022-12-12T00:25:20.557Z,8.51
2022-12-12T00:27:47.322Z,8.65
2022-12-12T00:30:14.065Z,8.43
2022-12-12T00:32:40.684Z,8.39
2022-12-12T00:35:07.687Z,8.53
2022-12-12T00:37:34.339Z,8.36
2022-12-12T00:40:02.198Z,8.59
2022-12-12T00:42:28.905Z,8.71
2022-12-12T00:44:55.588Z,8.68
2022-12-12T00:47:24.840Z,8.47
2022-12-12T00:49:51.474Z,8.55
2022-12-12T00:52:18.089Z,8.74
2022-12-12T00:54:44.846Z,8.72
2022-12-12T00:57:11.548Z,8.62
2022-12-12T00:59:38.430Z,8.72
2022-12-12T01:02:05.327Z,8.77
2022-12-12T01:04:32.069Z,8.93
2022-12-12T01:06:58.759Z,8.79
2022-12-12T01:09:25.624Z,8.89
2022-12-12T01:11:52.211Z,8.76
2022-12-12T01:14:18.847Z,8.99
2022-12-12T01:16:45.506Z,8.71
2022-12-12T01:19:12.868Z,8.64
2022-12-12T01:21:39.517Z,8.81
2022-12-12T01:24:06.449Z,8.83
2022-12-12T01:26:33.292Z,8.89
2022-12-12T01:28:59.930Z,8.76
2022-12-12T01:31:26.625Z,8.54
2022-12-12T01:33:53.325Z,8.76
2022-12-12T01:36:23.264Z,8.85
2022-12-12T01:38:52.405Z,8.87
2022-12-12T01:41:20.968Z,8.88
2022-12-12T01:43:48.123Z,8.72
2022-12-12T01:46:40.823Z,8.90
2022-12-12T01:49:26.340Z,9.01
2022-12-12T01:51:58.386Z,8.90
2022-12-12T01:54:33.222Z,8.86
2022-12-12T01:57:05.364Z,8.57
2022-12-12T01:59:34.349Z,8.82
2022-12-12T02:02:01.178Z,8.57
2022-12-12T02:04:28.781Z,8.49
2022-12-12T02:06:56.284Z,8.57
2022-12-12T02:09:25.733Z,8.34
2022-12-12T02:11:55.772Z,8.60
2022-12-12T02:14:43.353Z,8.69
2022-12-12T02:17:09.938Z,8.85
2022-12-12T02:19:39.532Z,8.90
2022-12-12T02:22:13.926Z,8.91
2022-12-12T02:24:42.845Z,8.90
2022-12-12T02:27:31.641Z,8.85
2022-12-12T02:30:18.308Z,8.93
2022-12-12T02:32:53.938Z,8.92
2022-12-12T02:35:43.308Z,8.89
2022-12-12T02:38:22.027Z,8.84
2022-12-12T02:41:14.162Z,8.82
2022-12-12T02:44:06.267Z,8.80
2022-12-12T02:47:12.590Z,8.79
2022-12-12T02:49:53.490Z,8.69
2022-12-12T02:52:21.383Z,8.56
2022-12-12T02:54:51.351Z,8.71
2022-12-12T02:57:24.067Z,8.67
2022-12-12T03:00:05.729Z,8.87
2022-12-12T03:03:14.204Z,8.95
2022-12-12T03:06:21.296Z,8.98
2022-12-12T03:09:26.739Z,9.08
2022-12-12T03:11:56.276Z,9.05
2022-12-12T03:14:32.024Z,9.05
2022-12-12T03:17:09.356Z,8.93
2022-12-12T03:20:05.004Z,8.93
2022-12-12T03:22:40.775Z,9.12
2022-12-12T03:25:18.868Z,9.15
2022-12-12T03:27:56.151Z,9.25
2022-12-12T03:30:22.934Z,9.30
2022-12-12T03:33:20.759Z,9.29
2022-12-12T03:36:23.855Z,9.30
2022-12-12T03:39:00.572Z,9.28
2022-12-12T03:41:48.636Z,9.12
2022-12-12T03:44:22.546Z,9.35
2022-12-12T03:46:54.954Z,9.39
2022-12-12T03:49:40.581Z,9.25
2022-12-12T03:52:13.409Z,9.31
2022-12-12T03:54:52.280Z,9.15
2022-12-12T03:57:20.896Z,9.44
2022-12-12T04:00:06.529Z,9.44
2022-12-12T04:02:40.773Z,9.24
2022-12-12T04:05:25.980Z,9.42
2022-12-12T04:07:55.316Z,9.48
2022-12-12T04:10:46.367Z,9.36
2022-12-12T04:13:17.037Z,9.31
2022-12-12T04:16:05.544Z,9.03
2022-12-12T04:18:50.720Z,9.26
2022-12-12T04:22:04.354Z,9.18
2022-12-12T04:25:09.771Z,9.05
2022-12-12T04:27:44.496Z,8.69
2022-12-12T04:30:13.440Z,8.90
2022-12-12T04:32:45.841Z,8.65
2022-12-12T04:35:37.172Z,8.90
2022-12-12T04:38:08.476Z,8.87
2022-12-12T04:40:39.756Z,8.82
2022-12-12T04:43:11.758Z,8.51
2022-12-12T04:45:42.505Z,8.55
2022-12-12T04:48:16.208Z,8.44
2022-12-12T04:50:45.710Z,8.60
2022-12-12T04:53:18.772Z,8.70
2022-12-12T04:55:55.755Z,8.42
2022-12-12T04:58:22.974Z,8.43
2022-12-12T05:01:03.931Z,8.43
2022-12-12T05:03:47.141Z,8.25
2022-12-12T05:06:18.330Z,8.29
2022-12-12T05:08:48.974Z,8.32
2022-12-12T05:11:18.521Z,8.22
2022-12-12T05:13:45.600Z,8.09
2022-12-12T05:16:27.639Z,8.20
2022-12-12T05:18:54.332Z,8.01
2022-12-12T05:21:20.989Z,7.75
2022-12-12T05:23:47.740Z,7.82
2022-12-12T05:26:32.711Z,7.85
2022-12-12T05:29:05.248Z,8.00
2022-12-12T05:31:33.535Z,7.86
2022-12-12T05:34:00.178Z,7.73
2022-12-12T05:36:27.156Z,7.83
2022-12-12T05:38:53.808Z,7.63
2022-12-12T05:41:20.625Z,7.62
2022-12-12T05:43:47.369Z,7.80
2022-12-12T05:46:14.308Z,7.71
2022-12-12T05:48:41.108Z,7.59
2022-12-12T05:51:07.878Z,7.63
2022-12-12T05:53:42.502Z,7.69
2022-12-12T05:56:11.667Z,7.57
2022-12-12T05:58:39.546Z,7.74
2022-12-12T06:01:07.016Z,7.61
2022-12-12T06:03:33.937Z,7.74
2022-12-12T06:06:00.744Z,7.58
2022-12-12T06:08:27.723Z,7.81
2022-12-12T06:10:54.499Z,7.80
2022-12-12T06:13:21.163Z,7.76
2022-12-12T06:15:47.966Z,7.72
2022-12-12T06:18:14.622Z,7.83
2022-12-12T06:20:41.578Z,7.79
2022-12-12T06:23:08.218Z,7.91
2022-12-12T06:25:34.930Z,7.90
2022-12-12T06:28:01.595Z,8.14
2022-12-12T06:30:28.289Z,8.16
2022-12-12T06:32:54.970Z,8.13
2022-12-12T06:35:21.613Z,8.26
2022-12-12T06:37:48.760Z,8.38
2022-12-12T06:40:16.448Z,8.41
2022-12-12T06:42:48.524Z,8.42
2022-12-12T06:45:16.665Z,8.71
2022-12-12T06:47:43.639Z,8.58
2022-12-12T06:50:10.353Z,8.82
2022-12-12T06:52:37.630Z,8.82
2022-12-12T06:55:04.783Z,8.91
2022-12-12T06:57:31.409Z,8.70
2022-12-12T06:59:58.110Z,8.99
2022-12-12T07:02:29.482Z,9.11
2022-12-12T07:04:57.092Z,9.07
2022-12-12T07:07:23.754Z,8.94
2022-12-12T07:09:50.620Z,9.20
2022-12-12T07:12:17.261Z,9.13
2022-12-12T07:14:44.011Z,9.15
2022-12-12T07:17:10.681Z,9.06
2022-12-12T07:19:37.525Z,9.00
2022-12-12T07:22:09.323Z,9.34
2022-12-12T07:24:36.763Z,9.51
2022-12-12T07:27:03.684Z,9.45
2022-12-12T07:29:30.474Z,9.71
2022-12-12T07:31:57.081Z,9.31
2022-12-12T07:34:23.777Z,9.59
2022-12-12T07:36:50.459Z,9.57
2022-12-12T07:39:20.754Z,9.56
2022-12-12T07:41:48.289Z,9.54
2022-12-12T07:44:16.597Z,9.71
2022-12-12T07:46:43.289Z,9.77
2022-12-12T07:49:10.192Z,10.22
2022-12-12T07:51:44.156Z,10.18
2022-12-12T07:54:13.884Z,10.26
2022-12-12T07:56:41.036Z,10.62
2022-12-12T07:59:07.917Z,10.37
2022-12-12T08:01:34.734Z,10.49
2022-12-12T08:04:01.939Z,11.09
2022-12-12T08:06:29.026Z,11.32
2022-12-12T08:08:56.203Z,11.19
2022-12-12T08:11:25.582Z,11.81
2022-12-12T08:13:53.321Z,12.23
2022-12-12T08:16:30.013Z,12.02
2022-12-12T08:18:58.044Z,11.57
2022-12-12T08:21:26.709Z,11.47
2022-12-12T08:24:02.360Z,11.22
2022-12-12T08:26:30.748Z,11.48
2022-12-12T08:28:58.543Z,12.03
2022-12-12T08:31:26.734Z,12.40
2022-12-12T08:33:53.687Z,12.78
2022-12-12T08:36:23.290Z,12.87
2022-12-12T08:38:50.637Z,12.66
2022-12-12T08:41:18.214Z,12.09
2022-12-12T08:43:45.375Z,11.80
2022-12-12T08:46:17.366Z,11.76
2022-12-12T08:48:46.115Z,11.38
2022-12-12T08:51:13.892Z,11.69
2022-12-12T08:53:43.277Z,11.61
2022-12-12T08:56:10.013Z,11.58
2022-12-12T08:58:39.965Z,11.56
2022-12-12T09:01:22.027Z,11.41
2022-12-12T09:03:50.700Z,11.51
2022-12-12T09:06:18.253Z,11.62
2022-12-12T09:08:45.778Z,12.26
2022-12-12T09:11:13.472Z,12.51
2022-12-12T09:13:40.360Z,12.78
2022-12-12T09:16:08.744Z,13.86
2022-12-12T09:18:36.617Z,13.32
2022-12-12T09:21:03.794Z,12.30
2022-12-12T09:23:30.590Z,12.41
2022-12-12T09:25:57.802Z,13.53
2022-12-12T09:28:26.194Z,14.75
2022-12-12T09:30:52.922Z,14.28
2022-12-12T09:33:20.414Z,13.51
2022-12-12T09:35:47.162Z,13.24
2022-12-12T09:38:14.866Z,13.04
2022-12-12T09:40:50.931Z,13.51
2022-12-12T09:43:24.721Z,13.46
2022-12-12T09:45:55.007Z,13.53
2022-12-12T09:48:38.514Z,13.66
2022-12-12T09:51:09.773Z,13.54
2022-12-12T09:53:37.553Z,13.51
2022-12-12T09:56:15.330Z,14.44
2022-12-12T09:59:00.295Z,14.64
2022-12-12T10:01:55.226Z,14.92
2022-12-12T10:04:34.099Z,15.85
2022-12-12T10:07:13.124Z,15.90
2022-12-12T10:09:58.062Z,15.74
2022-12-12T10:12:25.313Z,15.99
2022-12-12T10:14:57.414Z,16.43
2022-12-12T10:17:29.607Z,15.79
2022-12-12T10:20:00.989Z,15.86
2022-12-12T10:22:43.149Z,16.16
2022-12-12T10:25:36.202Z,17.34
2022-12-12T10:28:33.147Z,18.80
2022-12-12T10:31:11.699Z,19.06
2022-12-12T10:33:56.761Z,19.09
2022-12-12T10:36:38.581Z,19.11
2022-12-12T10:39:34.185Z,19.24
2022-12-12T10:42:10.610Z,19.64
2022-12-12T10:44:45.556Z,19.32
2022-12-12T10:47:14.543Z,19.23
2022-12-12T10:49:42.244Z,19.42
2022-12-12T10:52:22.551Z,19.87
2022-12-12T10:54:58.236Z,19.75
2022-12-12T10:57:27.351Z,20.08
2022-12-12T10:59:57.461Z,20.88
2022-12-12T11:02:37.014Z,22.42
2022-12-12T11:05:26.955Z,22.74
2022-12-12T11:08:03.768Z,22.04
2022-12-12T11:10:36.424Z,23.08
2022-12-12T11:13:15.544Z,24.16
2022-12-12T11:15:50.992Z,24.48
2022-12-12T11:18:20.739Z,22.74
2022-12-12T11:21:13.881Z,21.75
2022-12-12T11:23:47.791Z,22.59
2022-12-12T11:26:18.339Z,23.41
2022-12-12T11:28:53.155Z,23.72
2022-12-12T11:31:23.426Z,24.04
2022-12-12T11:33:57.308Z,25.12
2022-12-12T11:36:37.480Z,26.18
2022-12-12T11:39:16.931Z,25.47
2022-12-12T11:42:03.779Z,25.36
2022-12-12T11:44:36.418Z,24.66
2022-12-12T11:47:24.342Z,24.21
2022-12-12T11:49:57.546Z,22.83
2022-12-12T11:52:29.071Z,23.44
2022-12-12T11:54:56.257Z,23.77
2022-12-12T11:57:38.028Z,23.73
2022-12-12T12:00:19.045Z,22.08
2022-12-12T12:03:21.366Z,22.59
2022-12-12T12:06:07.137Z,22.78
2022-12-12T12:08:59.536Z,21.94
2022-12-12T12:11:46.369Z,20.78
2022-12-12T12:14:36.858Z,20.32
2022-12-12T12:17:32.992Z,21.14
2022-12-12T12:20:32.815Z,21.07
2022-12-12T12:23:24.613Z,19.16
2022-12-12T12:26:10.912Z,17.93
2022-12-12T12:28:49.940Z,17.12
2022-12-12T12:31:42.853Z,16.67
2022-12-12T12:34:17.441Z,17.01
2022-12-12T12:36:47.123Z,16.82
2022-12-12T12:39:53.605Z,16.33
2022-12-12T12:42:35.317Z,15.64
2022-12-12T12:45:24.380Z,14.81
2022-12-12T12:48:10.869Z,14.44
2022-12-12T12:50:40.027Z,13.85
2022-12-12T12:53:15.622Z,13.62
2022-12-12T12:55:50.700Z,13.07
2022-12-12T12:58:25.821Z,12.95
2022-12-12T13:01:25.123Z,13.01
2022-12-12T13:04:01.952Z,12.96
2022-12-12T13:06:54.890Z,12.93
2022-12-12T13:09:32.628Z,12.95
2022-12-12T13:12:05.792Z,13.03
2022-12-12T13:15:21.031Z,12.99
2022-12-12T13:17:47.818Z,13.04
2022-12-12T13:20:19.082Z,12.85
2022-12-12T13:22:58.122Z,12.79
2022-12-12T13:25:37.900Z,12.70
2022-12-12T13:28:14.274Z,12.81
2022-12-12T13:31:18.094Z,12.74
2022-12-12T13:33:47.320Z,12.72
2022-12-12T13:36:26.023Z,12.39
2022-12-12T13:38:59.053Z,12.43
2022-12-12T13:41:28.846Z,12.51
2022-12-12T13:43:59.923Z,12.58
2022-12-12T13:46:27.373Z,12.53
2022-12-12T13:48:53.962Z,12.44
2022-12-12T13:51:31.049Z,12.42
2022-12-12T13:54:12.056Z,12.31
2022-12-12T13:56:47.557Z,12.31
2022-12-12T13:59:23.409Z,12.23
2022-12-12T14:02:01.006Z,11.80
2022-12-12T14:04:33.466Z,11.87
2022-12-12T14:07:19.213Z,12.03
2022-12-12T14:09:49.812Z,11.66
2022-12-12T14:12:31.376Z,11.84
2022-12-12T14:15:06.120Z,11.74
2022-12-12T14:17:42.304Z,11.64
2022-12-12T14:20:25.921Z,11.62
2022-12-12T14:22:52.531Z,11.69
2022-12-12T14:25:29.748Z,11.68
2022-12-12T14:28:20.680Z,11.46
2022-12-12T14:31:16.040Z,11.57
2022-12-12T14:34:24.557Z,11.56
2022-12-12T14:37:06.976Z,11.35
2022-12-12T14:39:42.894Z,11.48
2022-12-12T14:42:26.261Z,11.37
2022-12-12T14:44:52.945Z,11.24
2022-12-12T14:47:19.628Z,11.12
2022-12-12T14:49:46.306Z,11.06
2022-12-12T14:52:24.275Z,11.10
2022-12-12T14:54:51.536Z,10.90
2022-12-12T14:57:23.493Z,11.15
2022-12-12T14:59:50.587Z,11.06
2022-12-12T15:02:20.939Z,11.10
2022-12-12T15:05:00.944Z,11.10
2022-12-12T15:07:33.395Z,11.02
2022-12-12T15:10:01.860Z,11.01
2022-12-12T15:12:42.873Z,10.84
2022-12-12T15:15:33.350Z,11.08
2022-12-12T15:18:01.362Z,10.95
2022-12-12T15:20:32.422Z,11.00
2022-12-12T15:23:05.619Z,10.97
2022-12-12T15:25:43.260Z,10.99
2022-12-12T15:28:19.050Z,10.92
2022-12-12T15:30:49.394Z,11.13
2022-12-12T15:33:19.498Z,10.91
2022-12-12T15:36:29.078Z,11.07
2022-12-12T15:39:15.788Z,11.00
2022-12-12T15:41:44.277Z,10.55
2022-12-12T15:44:21.236Z,10.58
2022-12-12T15:46:50.521Z,10.64
2022-12-12T15:49:40.269Z,10.73
2022-12-12T15:52:20.189Z,10.72
2022-12-12T15:54:55.193Z,10.37
2022-12-12T15:57:43.768Z,10.60
2022-12-12T16:00:37.568Z,10.40
2022-12-12T16:03:18.710Z,10.51
2022-12-12T16:05:58.798Z,10.44
2022-12-12T16:08:33.307Z,10.40
2022-12-12T16:11:03.456Z,10.33
2022-12-12T16:13:41.905Z,10.11
2022-12-12T16:16:46.473Z,10.25
2022-12-12T16:19:41.124Z,10.19
2022-12-12T16:22:17.112Z,9.94
2022-12-12T16:24:50.716Z,10.17
2022-12-12T16:27:17.797Z,10.23
2022-12-12T16:29:45.492Z,10.03
2022-12-12T16:32:15.070Z,9.93
2022-12-12T16:34:42.200Z,10.17
2022-12-12T16:37:14.700Z,9.88
2022-12-12T16:39:42.091Z,9.88
2022-12-12T16:42:16.513Z,9.76
2022-12-12T16:44:43.656Z,9.94
2022-12-12T16:47:19.448Z,10.00
2022-12-12T16:49:46.154Z,9.78
2022-12-12T16:52:18.380Z,10.09
2022-12-12T16:54:52.815Z,10.05
2022-12-12T16:57:21.433Z,9.96
2022-12-12T16:59:48.138Z,10.00
2022-12-12T17:02:19.706Z,9.77
2022-12-12T17:04:46.420Z,9.92
2022-12-12T17:07:13.162Z,10.06
2022-12-12T17:09:40.181Z,9.95
2022-12-12T17:12:08.964Z,10.16
2022-12-12T17:14:37.497Z,9.86
2022-12-12T17:17:05.266Z,9.88
2022-12-12T17:19:32.415Z,9.87
2022-12-12T17:22:01.755Z,9.92
2022-12-12T17:24:29.005Z,9.82
2022-12-12T17:26:56.120Z,9.81
2022-12-12T17:29:22.858Z,10.04
2022-12-12T17:31:49.665Z,9.58
2022-12-12T17:34:16.440Z,9.69
2022-12-12T17:36:43.117Z,9.66
2022-12-12T17:39:11.047Z,9.55
2022-12-12T17:41:37.661Z,9.76
2022-12-12T17:44:04.417Z,9.67
2022-12-12T17:46:31.072Z,9.75
2022-12-12T17:48:58.773Z,9.84
2022-12-12T17:51:25.910Z,9.73
2022-12-12T17:53:52.866Z,9.51
2022-12-12T17:56:23.021Z,9.50
2022-12-12T17:58:50.565Z,9.71
2022-12-12T18:01:26.261Z,9.67
2022-12-12T18:03:53.638Z,9.68
2022-12-12T18:06:21.880Z,9.68
2022-12-12T18:08:49.270Z,9.72
2022-12-12T18:11:24.998Z,9.64
2022-12-12T18:13:53.915Z,9.67
2022-12-12T18:16:25.798Z,9.40
2022-12-12T18:18:52.567Z,9.43
2022-12-12T18:21:51.634Z,9.30
2022-12-12T18:24:10.054Z,9.53
2022-12-12T18:26:36.931Z,9.44
2022-12-12T18:29:07.408Z,9.46
2022-12-12T18:31:35.472Z,9.43
2022-12-12T18:34:02.256Z,9.48
2022-12-12T18:36:30.817Z,9.28
2022-12-12T18:38:59.831Z,9.50
2022-12-12T18:41:28.225Z,9.63
2022-12-12T18:43:55.850Z,9.71
2022-12-12T18:46:24.831Z,9.67
2022-12-12T18:48:51.810Z,9.66
2022-12-12T18:51:22.485Z,9.63
2022-12-12T18:53:50.017Z,9.53
2022-12-12T18:56:20.163Z,9.70
2022-12-12T18:58:47.054Z,9.46
2022-12-12T19:01:20.202Z,9.48
2022-12-12T19:03:49.314Z,9.57
2022-12-12T19:06:20.593Z,9.45
2022-12-12T19:08:47.971Z,9.28
2022-12-12T19:11:15.157Z,9.50
2022-12-12T19:13:43.111Z,9.19
2022-12-12T19:16:15.632Z,8.98
2022-12-12T19:18:43.243Z,9.19
2022-12-12T19:21:16.614Z,9.08
2022-12-12T19:23:45.236Z,8.60
2022-12-12T19:26:18.978Z,8.61
2022-12-12T19:28:47.564Z,8.84
2022-12-12T19:31:15.929Z,8.63
2022-12-12T19:33:44.416Z,8.43
2022-12-12T19:36:20.346Z,8.60
2022-12-12T19:38:50.048Z,8.48
2022-12-12T19:41:18.925Z,8.54
2022-12-12T19:43:47.156Z,8.71
2022-12-12T19:46:19.583Z,8.80
2022-12-12T19:48:46.834Z,8.79
2022-12-12T19:51:19.315Z,8.67
2022-12-12T19:53:52.047Z,8.70
2022-12-12T19:56:21.881Z,8.50
2022-12-12T19:58:49.363Z,8.79
2022-12-12T20:01:21.670Z,8.55
2022-12-12T20:03:55.057Z,8.35
2022-12-12T20:06:23.333Z,8.52
2022-12-12T20:08:50.285Z,8.51
2022-12-12T20:11:21.352Z,8.30
2022-12-12T20:13:53.258Z,8.19
2022-12-12T20:16:22.649Z,8.41
2022-12-12T20:18:49.956Z,8.32
2022-12-12T20:21:43.399Z,8.29
2022-12-12T20:24:07.249Z,8.28
2022-12-12T20:26:34.685Z,8.15
2022-12-12T20:29:01.978Z,8.18
2022-12-12T20:31:33.237Z,8.05
2022-12-12T20:34:00.680Z,8.33
2022-12-12T20:36:30.320Z,8.25
2022-12-12T20:38:58.457Z,8.25
2022-12-12T20:41:28.099Z,8.13
2022-12-12T20:43:56.944Z,7.88
2022-12-12T20:46:33.426Z,7.78
2022-12-12T20:49:02.082Z,7.97
2022-12-12T20:54:21.576Z,7.28
2022-12-12T20:56:52.087Z,7.51
2022-12-12T20:59:19.884Z,7.05
2022-12-12T21:01:47.460Z,7.02
2022-12-12T21:04:15.203Z,6.96
2022-12-12T21:06:51.666Z,7.02
2022-12-12T21:09:24.814Z,6.80
2022-12-12T21:11:54.888Z,6.72
2022-12-12T21:14:21.856Z,6.58
2022-12-12T21:16:49.124Z,6.42
2022-12-12T21:19:17.197Z,6.18
2022-12-12T21:21:44.299Z,6.30
2022-12-12T21:24:17.128Z,6.17
2022-12-12T21:26:44.194Z,5.93
2022-12-12T21:29:11.363Z,5.87
2022-12-12T21:31:46.580Z,5.86
2022-12-12T21:34:17.678Z,5.72
2022-12-12T21:36:44.716Z,5.44
2022-12-12T21:39:12.528Z,5.63
2022-12-12T21:41:44.025Z,5.38
2022-12-12T21:44:11.148Z,5.54
2022-12-12T21:46:41.981Z,5.36
2022-12-12T21:49:30.321Z,5.13
2022-12-12T21:52:04.354Z,5.09
2022-12-12T21:54:31.892Z,4.82
2022-12-12T21:57:00.322Z,4.88
2022-12-12T21:59:30.731Z,4.71
2022-12-12T22:02:00.089Z,4.77
2022-12-12T22:04:27.478Z,4.73
2022-12-12T22:06:54.322Z,4.41
2022-12-12T22:09:22.757Z,4.57
2022-12-12T22:11:52.086Z,4.16
2022-12-12T22:14:20.808Z,4.23
2022-12-12T22:16:47.905Z,4.24
2022-12-12T22:19:19.437Z,4.35
2022-12-12T22:21:50.297Z,3.93
2022-12-12T22:24:17.909Z,3.94
2022-12-12T22:26:47.958Z,4.24
2022-12-12T22:29:20.391Z,4.18
2022-12-12T22:31:51.370Z,4.24
2022-12-12T22:34:23.814Z,4.26
2022-12-12T22:36:54.117Z,4.19
2022-12-12T22:39:24.164Z,4.31
2022-12-12T22:41:51.447Z,4.29
2022-12-12T22:44:20.582Z,4.12
2022-12-12T22:46:49.642Z,3.98
2022-12-12T22:49:20.619Z,4.01
2022-12-12T22:51:49.630Z,4.25
2022-12-12T22:54:16.548Z,3.99
2022-12-12T22:56:44.639Z,4.02
2022-12-12T22:59:13.446Z,4.12
2022-12-12T23:01:42.111Z,4.27
2022-12-12T23:04:11.765Z,4.35
2022-12-12T23:06:38.627Z,4.11
2022-12-12T23:09:17.450Z,4.40
2022-12-12T23:11:46.286Z,4.31
2022-12-12T23:14:16.546Z,4.10
2022-12-12T23:16:44.212Z,4.23
2022-12-12T23:19:14.126Z,4.18
2022-12-12T23:21:40.974Z,4.07
2022-12-12T23:24:08.083Z,4.24
2022-12-12T23:26:36.709Z,4.46
2022-12-12T23:29:07.246Z,4.41
2022-12-12T23:31:36.116Z,4.05
2022-12-12T23:34:06.614Z,4.31
2022-12-12T23:36:33.548Z,4.22
2022-12-12T23:39:03.630Z,4.36
2022-12-12T23:41:30.489Z,4.16
2022-12-12T23:43:57.673Z,4.18
2022-12-12T23:46:34.062Z,4.35
2022-12-12T23:49:12.739Z,4.38
2022-12-12T23:51:48.193Z,4.43
2022-12-12T23:54:32.087Z,4.44
2022-12-12T23:56:59.478Z,4.24
2022-12-12T23:59:27.474Z,4.50
